BFIBOEING FIELD/KING COUNTY INTL
METARs for nearby airports:
N 0 21' KBFI 202153Z 32006KT 10SM BKN250 23/12 A3012
SE 4 32' KRNT 202153Z 31009KT 10SM CLR 24/12 A3011
S 4 432' KSEA 202153Z 29008KT 10SM FEW120 BKN250 24/11 A3013
W 18 443' KPWT 202156Z 01006KT CLR 23/11 A3013
SW 19 294' KTIW 202153Z VRB04KT 10SM CLR 22/09 A3012
N 22 607' KPAE 202153Z 36005KT 10SM CLR 21/12 A3015
S 24 322' KTCM 202158Z 33005KT 10SM CLR 23/12 A3012
S 25 537' KPLU 202235Z 00000KT 10SM CLR 24/12 A3012
S 29 305' KGRF 202158Z 30005KT 10SM SCT140 BKN180 23/12 A3012
N 38 141' KAWO 202156Z 22006KT 10SM CLR 22/12 A3013
SW 38 272' KSHN 202153Z VRB05KT 10SM CLR 24/11 A3010
SW 41 207' KOLM 202154Z 03006KT 10SM CLR 22/11 A3013
N 51 47' KNUW 202156Z 23013KT 10SM FEW050 SCT100 BKN250 18/11 A3017
N 56 145' KBVS 202235Z 21010KT 8SM CLR 23/12 A3011
NW 57 13' KNOW 202235Z 28014KT 10SM OVC002 15/13 A3013
SW 58 177' KCLS 202235Z 00000KT 10SM -DZ CLR 26/12 A3010
NW 59 291' KCLM 202153Z 31008KT 10SM FEW015 18/14 A3015
NW 66 112' KFHR 202153Z 12005KT 10SM CLR 19/12 A3013
SW 74 17' KHQM 202153Z 26016KT 10SM CLR 21/15 A3014
N 74 34' KORS 202235Z 36004KT 10SM CLR 20/12 A3011
N 76 170' KBLI 202153Z 16007KT 10SM CLR 21/11 A3012
E 78 1763' KELN 202153Z 15005KT 10SM CLR 28/07 A3002
NW 80 64' CYYJ 202200Z 14008G15KT 100V170 30SM FEW030 FEW200 FEW250 19/12 A3011
E 85 1248' KEAT 202155Z 11007KT 10SM CLR 28/04 A2998
S 88 20' KKLS 202156Z 29008KT 10SM CLR 24/14 A3009
SE 92 1098' KYKM 202153Z VRB04KT 10SM CLR 30/04 A3000
W 94 193' KUIL 202153Z 30009KT 10SM BKN022 21/14 A3017
TAFs for nearby airports:
N 0 21' KBFI KBFI 201725Z 2018/2118 00000KT P6SM BKN200
  FM202000 32005KT P6SM SCT250
  FM210600 VRB03KT P6SM SCT250
  FM211300 00000KT P6SM SCT006
  FM211600 32006KT P6SM SKC
S 4 432' KSEA KSEA 202104Z 2021/2124 30007KT P6SM FEW120 BKN250
  FM210500 02006KT P6SM SCT250
  FM211300 03004KT P6SM SCT003
  FM211600 33008KT P6SM SKC
W 18 443' KPWT TAF KPWT 201725Z 2018/2118 03006KT P6SM SCT250
  FM211200 04003KT P6SM SCT002
  TEMPO 2113/2116 BKN002
  FM211700 04003KT P6SM SKC
N 22 607' KPAE KPAE 201725Z 2018/2118 34006KT P6SM SCT250
  FM211300 01003KT P6SM SCT001
  FM211600 36006KT P6SM SKC
S 24 322' KTCM TAF KTCM 202107Z 2021/2203 34009KT 9999 SCT150 BKN200 QNH3007INS
  BECMG 2103/2104 35006KT 9999 FEW250 QNH3009INS
  BECMG 2112/2113 35006KT 4800 BR SKC QNH3009INS
  BECMG 2116/2117 02009KT 9999 NSW SKC QNH3000INS TX26/2100Z TN09/2113Z
S 29 305' KGRF TAF KGRF 202108Z 2021/2203 34009KT 9999 SCT150 BKN200 QNH3007INS
  BECMG 2109/2110 35006KT 8000 BR FEW250 QNH3009INS
  BECMG 2114/2115 35006KT 9999 NSW FEW250 QNH3000INS TX26/2100Z TN09/2113Z
SW 41 207' KOLM KOLM 201725Z 2018/2118 00000KT P6SM SCT250
  FM202100 35006KT P6SM SCT250
  FM210900 00000KT P6SM SKC
  FM211300 00000KT 4SM BR BKN004
  FM211700 00000KT P6SM SKC
N 51 47' KNUW TAF KNUW 2015/2115 VRB06KT 9999 SCT010 SCT100 BKN200 QNH3015INS
  TEMPO 2015/2018 BKN010 BKN100 BKN200
  FM202000 26008KT 9999 FEW050 SCT100 BKN250 QNH3010INS
  FM210600 VRB06KT 9000 BR FEW006 FEW100 SCT250 QNH3011INS
  TEMPO 2109/2115 4800 BR BKN006 BKN250 T19/2023Z T12/2113Z FS30118
NW 59 291' KCLM KCLM 201725Z 2018/2118 30010KT P6SM SCT250
  FM210900 29005KT P6SM BKN006
  FM211700 29006KT P6SM SKC
SW 74 17' KHQM TAF KHQM 201725Z 2018/2118 15004KT P6SM SCT250
  FM210400 28006KT P6SM SCT250
  FM210600 25006KT P6SM OVC011
  FM211200 36002KT 2SM BR OVC004
  FM211700 01003KT 4SM BR BKN008
N 76 170' KBLI KBLI 201725Z 2018/2118 17009G15KT P6SM SCT250
  FM202200 28006KT P6SM SCT250
  FM210300 18006KT P6SM SCT250
E 85 1248' KEAT TAF KEAT 201733Z 2018/2118 28006KT P6SM SCT200
  FM202200 VRB04KT P6SM FEW200
  FM210100 30011KT P6SM FEW300
  FM211600 VRB04KT P6SM SCT300
SE 92 1098' KYKM TAF KYKM 201720Z 2018/2118 VRB04KT P6SM BKN200
  FM210300 29008KT P6SM SKC
Area forecast:
000
FAUS46 KKCI 201945
FA6W  
SFOC FA 201945
SYNOPSIS AND VFR CLDS/WX
SYNOPSIS VALID UNTIL 211400
CLDS/WX VALID UNTIL 210800...OTLK VALID 210800-211400
WA OR CA AND CSTL WTRS
.
SEE AIRMET SIERRA FOR IFR CONDS AND MTN OBSCN.
TS IMPLY SEV OR GTR TURB SEV ICE LLWS AND IFR CONDS.
NON MSL HGTS DENOTED BY AGL OR CIG.
.
SYNOPSIS...ALF..UPR LVL TROF WILL CONT ACRS SIERRAS-SRN CA THRU
OTLK. MID/UPR LVL IMPULSE WILL APCH WA OR CSTL WTRS DURG OTLK.
NNW FLOW NE PTN BECMG NE FLOW DURG OTLK..NNE FLOW NW
PTN..CYCLONIC FLOW SRN PTN. SFC..LOW PRES NW CA THRU PD. LOW PRES
SE CA THRU OTLK.
.
WA CASCDS WWD
CSTL SXNS
  CSTLN...SCT020 BKN CI. BECMG 0406 BKN015-020 TOPS 035. OCNL
    VIS 3-5SM BR. OTLK...MVFR CIG BR.
  INLAND...SCT-BKN CI. BECMG 0507 SCT015. OCNL VIS 3-5SM BR.
    OTLK...VFR.
PUGET SOUND-INTR VLY...SCT-BKN CI. OTLK...VFR.
CASCDS...FEW-SCT150 SCT CI. BECMG 0002 SCT CI. OTLK...VFR.
.
WA E OF CASCDS
CNTRL WA...SCT150 BKN CI. BECMG 0002 SCT CI OCNL SKC. OTLK...VFR.
ERN WA...SCT-BKN CI. BECMG 0002 SKC OCNL SCT CI. OTLK...VFR.
.
OR CASCDS WWD
CSTL SXNS
  CSTLN...
    N 2/3...SKC OCNL SCT CI. WND N G25KT. BECMG 0407 BKN015-020
      TOPS 025. OCNL VIS 3-5SM BR. OTLK...MVFR BR.
    S 1/3...SKC. WND N 25G35KT. BECMG 0305 BKN010-020 TOPS 025.
      OCNL VIS 3-5SM BR. OTLK...IFR CIG BR.
  INLAND...SKC OCNL SCT CI NRN PTN. BECMG 0407 SCT015. OCNL VIS
    3-5SM BR. OTLK...VFR.
WILLAMETTE VLY...SKC OCNL FEW-SCT150. BECMG 0103 SKC OCNL SCT
  CI. OTLK...VFR.
SWRN INTR...SKC. OTLK...VFR.
CASCDS...SKC OCNL SCT CI NRN PTN. OTLK...VFR.
.
OR E OF CASCDS
CNTRL...SKC OCNL SCT CI. AREAS FU ALF SRN PTN. OTLK...VFR.
ERN...SKC. AREAS FU ALF SRN PTN. OTLK...VFR.
.
NRN CA...STS-SAC-TVL LN NWD
CSTL SXNS...
  CSTLN...SCT025. OCNL VIS 4-5SM FU/HZ. AREAS FU ALF. BECMG 0104
    BKN015-020 TOPS 025. OCNL VIS 3-5SM FU/HZ. OTLK...IFR CIG FU
    HZ.
  INLAND...SKC. AREAS FU ALF. OTLK...VFR.
SAC VLY...SKC. AREAS FU ALF NRN PTN. OTLK...VFR.
SHASTA-SISKIYOUS-NERN CA...SKC. AREAS FU ALF. OTLK...MVFR FU HZ.
NRN SIERNEV...SCT140 SCT CI. ISOL -TSRA/-SHRA. CB TOP FL400.
  BECMG 0305 SCT150. OTLK...VFR.
.
CNTRL CA
CSTL SXNS...
  CSTLN...SCT015. BECMG 0204 BKN010-020 TOPS 025. OCNL VIS 3-5SM
    BR. OTLK...IFR CIG BR.
  INLAND...SKC. BECMG 0406 SCT015. OCNL VIS 3-5SM BR.
    OTLK...MVFR CIG BR.
SAN JOAQUIN VLY...SKC. OTLK...VFR.
SRN SIERNEV...SCT120 SCT150. ISOL -TSRA/-SHRA. CB TOP FL400.
  BECMG 0204 SCT CI. OTLK...VFR.
.
SRN CA..VBG-NID-60NNW BIH LN SWD
CSTL SXNS...SCT015. BECMG 0205 BKN015-025 TOPS 030. OCNL VIS
  3-5SM BR. OTLK...MVFR CIG BR.
INTR MTNS-DESERTS-VLYS...SKC. OTLK...VFR.
.
CSTL WTRS
WA...BKN015-020 TOPS 025. BECMG 0205 BKN-OVC010-020. OTLK...IFR
  CIG BR.
OR...
  N HLF...BKN015-020 TOPS 025. OTLK...MVFR CIG.
  S HLF...SCT020. WND N 30G35KT. BECMG 0204 BKN015-020 TOPS 025.
    WND N G30KT. OTLK...MVFR CIG WND.
CA...
  NRN...SKC OCNL SCT020 CSTLN. AREAS FU ALF. BECMG 0204 BKN020
    TOPS 025. AREAS FU ALF. OTLK...MVFR CIG FU HZ.
  CNTRL-SRN...BKN-OVC010-020 TOPS 025. OTLK...IFR CIG BR.
....

Shortcut to this page: http://wxbay.com.

Data may contain errors.